Time;durP1;ratioP1;P1;durP2;ratioP2;P2;SDS_P1;SDS_P2;PMS_P1;PMS_P2;Temp;Humidity;BMP_temperature;BMP_pressure;BME280_temperature;BME280_humidity;BME280_pressure;Samples;Min_cycle;Max_cycle;Signal;HPM_P1;HPM_P2
2023/06/27 00:02:15;;;;;;;;;2.00;1.00;;;;;;;;5053458;28;8900;-88
2023/06/27 00:04:43;;;;;;;;;0.00;0.00;;;;;;;;5054900;28;8857;-88
2023/06/27 00:07:11;;;;;;;;;1.25;1.25;;;;;;;;5053499;28;8923;-85
2023/06/27 00:09:39;;;;;;;;;1.00;1.00;;;;;;;;5054446;28;8889;-88
2023/06/27 00:12:08;;;;;;;;;1.00;1.00;;;;;;;;5056291;28;8884;-86
2023/06/27 00:14:37;;;;;;;;;4.00;1.00;;;;;;;;5074294;28;8859;-84
2023/06/27 00:17:12;;;;;;;;;1.00;1.00;;;;;;;;5071766;28;8890;-85
2023/06/27 00:19:39;;;;;;;;;1.50;1.50;;;;;;;;5055800;28;8901;-85
2023/06/27 00:22:09;;;;;;;;;1.00;1.00;;;;;;;;5051886;28;8873;-86
2023/06/27 00:24:36;;;;;;;;;4.00;1.00;;;;;;;;5055701;28;8857;-83
2023/06/27 00:27:04;;;;;;;;;1.25;0.75;;;;;;;;5053698;28;8868;-87
2023/06/27 00:29:33;;;;;;;;;2.00;2.00;;;;;;;;5055571;28;8919;-85
2023/06/27 00:32:03;;;;;;;;;2.00;2.00;;;;;;;;5053027;28;9592;-83
2023/06/27 00:34:30;;;;;;;;;1.50;0.50;;;;;;;;5061607;28;8855;-84
2023/06/27 00:36:59;;;;;;;;;3.00;3.00;;;;;;;;5060974;28;9005;-85
2023/06/27 00:39:28;;;;;;;;;0.00;0.00;;;;;;;;5056664;28;8870;-84
2023/06/27 00:41:56;;;;;;;;;2.00;2.00;;;;;;;;5041217;28;8865;-84
2023/06/27 00:44:23;;;;;;;;;2.00;2.00;;;;;;;;5056664;28;8838;-84
2023/06/27 00:46:52;;;;;;;;;2.00;2.00;;;;;;;;5068536;28;8881;-84
2023/06/27 00:49:21;;;;;;;;;1.75;1.75;;;;;;;;5055950;28;8880;-87
2023/06/27 00:51:49;;;;;;;;;1.00;1.00;;;;;;;;5047957;28;8980;-84
2023/06/27 00:54:18;;;;;;;;;1.75;1.75;;;;;;;;5047248;28;8861;-87
2023/06/27 00:56:48;;;;;;;;;2.00;2.00;;;;;;;;5053055;28;8865;-88
2023/06/27 00:59:16;;;;;;;;;2.00;2.00;;;;;;;;5058435;28;8859;-87
2023/06/27 01:01:43;;;;;;;;;2.25;1.75;;;;;;;;5055511;28;8818;-87
2023/06/27 01:04:10;;;;;;;;;1.00;1.00;;;;;;;;5065792;28;8853;-90
2023/06/27 01:06:43;;;;;;;;;1.33;1.33;;;;;;;;5059197;28;8833;-87
2023/06/27 01:09:15;;;;;;;;;2.33;2.33;;;;;;;;5052183;28;9111;-88
2023/06/27 01:11:48;;;;;;;;;1.33;1.33;;;;;;;;5062010;28;9133;-88
2023/06/27 01:14:18;;;;;;;;;3.50;2.00;;;;;;;;5043754;28;8957;-90
2023/06/27 01:16:48;;;;;;;;;3.00;1.33;;;;;;;;5055178;28;8846;-89
2023/06/27 01:19:21;;;;;;;;;2.00;2.00;;;;;;;;5059855;28;9139;-90
2023/06/27 01:21:52;;;;;;;;;2.67;2.67;;;;;;;;5067044;28;8942;-89
2023/06/27 01:24:21;;;;;;;;;2.33;2.00;;;;;;;;5063931;28;9076;-88
2023/06/27 01:26:48;;;;;;;;;1.67;1.67;;;;;;;;5061316;28;8933;-86
2023/06/27 01:29:15;;;;;;;;;1.00;1.00;;;;;;;;5056819;28;8956;-88
2023/06/27 01:31:47;;;;;;;;;2.00;2.00;;;;;;;;5058209;28;9101;-88
2023/06/27 01:34:18;;;;;;;;;2.00;2.00;;;;;;;;5056823;28;9018;-91
2023/06/27 01:36:49;;;;;;;;;2.33;1.33;;;;;;;;5060059;28;9079;-91
2023/06/27 01:39:23;;;;;;;;;3.75;2.00;;;;;;;;5059482;28;9095;-91
2023/06/27 01:41:52;;;;;;;;;0.50;0.50;;;;;;;;5057778;28;8910;-89
2023/06/27 01:44:20;;;;;;;;;1.75;1.00;;;;;;;;5056308;28;8893;-89
2023/06/27 01:46:49;;;;;;;;;3.00;1.00;;;;;;;;5064716;28;8867;-87
2023/06/27 01:49:17;;;;;;;;;1.00;1.00;;;;;;;;5054161;28;8985;-87
2023/06/27 01:51:45;;;;;;;;;2.00;2.00;;;;;;;;5060655;28;8936;-87
2023/06/27 01:54:12;;;;;;;;;2.50;2.50;;;;;;;;5062613;28;8968;-91
2023/06/27 01:56:41;;;;;;;;;1.50;1.50;;;;;;;;5059751;28;8857;-88
2023/06/27 01:59:08;;;;;;;;;1.75;1.75;;;;;;;;5058522;28;8842;-90
2023/06/27 02:01:36;;;;;;;;;2.25;1.75;;;;;;;;5053611;28;8814;-89
2023/06/27 02:04:03;;;;;;;;;1.00;1.00;;;;;;;;5051483;28;8995;-88
2023/06/27 02:06:30;;;;;;;;;2.00;2.00;;;;;;;;5052539;28;8866;-84
2023/06/27 02:08:58;;;;;;;;;2.00;2.00;;;;;;;;5054377;28;8849;-88
2023/06/27 02:11:28;;;;;;;;;0.50;0.50;;;;;;;;5057719;28;8872;-87
2023/06/27 02:13:57;;;;;;;;;1.00;1.00;;;;;;;;5057208;28;8846;-86
2023/06/27 02:16:25;;;;;;;;;1.00;1.00;;;;;;;;5044337;28;8980;-90
2023/06/27 02:18:52;;;;;;;;;2.50;2.00;;;;;;;;5051992;28;8985;-92
2023/06/27 02:21:20;;;;;;;;;2.00;2.00;;;;;;;;5050203;28;9588;-86
2023/06/27 02:23:47;;;;;;;;;1.25;1.25;;;;;;;;5050003;28;8993;-84
2023/06/27 02:26:14;;;;;;;;;1.25;1.00;;;;;;;;5049018;28;8862;-86
2023/06/27 02:28:42;;;;;;;;;1.00;1.00;;;;;;;;5050413;28;8951;-85
2023/06/27 02:31:11;;;;;;;;;2.00;2.00;;;;;;;;5049055;28;8941;-84
2023/06/27 02:33:38;;;;;;;;;1.50;1.50;;;;;;;;5049262;28;8883;-83
2023/06/27 02:36:06;;;;;;;;;1.00;1.00;;;;;;;;5057243;28;8923;-87
2023/06/27 02:38:34;;;;;;;;;2.00;2.00;;;;;;;;5048630;28;8841;-89
2023/06/27 02:41:01;;;;;;;;;2.00;1.75;;;;;;;;5051387;28;8999;-87
2023/06/27 02:43:29;;;;;;;;;2.50;2.50;;;;;;;;5057261;28;8845;-90
2023/06/27 02:45:57;;;;;;;;;3.25;2.50;;;;;;;;5050676;28;9693;-87
2023/06/27 02:48:25;;;;;;;;;3.50;3.50;;;;;;;;5042450;28;8857;-89
2023/06/27 02:50:53;;;;;;;;;5.00;3.00;;;;;;;;5057016;28;8861;-88
2023/06/27 02:53:20;;;;;;;;;3.00;3.00;;;;;;;;5056619;28;8877;-85
2023/06/27 02:55:48;;;;;;;;;4.67;4.67;;;;;;;;5054759;28;9088;-87
2023/06/27 02:58:15;;;;;;;;;3.00;3.00;;;;;;;;5040969;28;9105;-90
2023/06/27 03:00:43;;;;;;;;;3.67;3.67;;;;;;;;5052270;28;8971;-88
2023/06/27 03:03:10;;;;;;;;;4.00;4.00;;;;;;;;5054933;28;9087;-89
2023/06/27 03:05:39;;;;;;;;;6.00;4.33;;;;;;;;5047237;28;8945;-93
2023/06/27 03:08:06;;;;;;;;;3.33;3.33;;;;;;;;5049364;28;9118;-89
2023/06/27 03:10:33;;;;;;;;;4.00;4.00;;;;;;;;5055042;28;9058;-93
2023/06/27 03:13:01;;;;;;;;;5.33;4.00;;;;;;;;5054369;28;9209;-92
2023/06/27 03:15:30;;;;;;;;;6.00;3.67;;;;;;;;5055484;28;9373;-94
2023/06/27 03:17:58;;;;;;;;;3.67;3.67;;;;;;;;5055743;28;8956;-91
2023/06/27 03:20:25;;;;;;;;;4.00;2.50;;;;;;;;5061201;28;8977;-90
2023/06/27 03:22:54;;;;;;;;;2.00;2.00;;;;;;;;5063818;28;8886;-89
2023/06/27 03:25:22;;;;;;;;;2.25;2.25;;;;;;;;5058595;28;8889;-84
2023/06/27 03:27:49;;;;;;;;;3.00;2.75;;;;;;;;5058253;28;8846;-86
2023/06/27 03:30:16;;;;;;;;;3.00;3.00;;;;;;;;5052446;28;8979;-92
2023/06/27 03:32:43;;;;;;;;;3.00;3.00;;;;;;;;5067828;28;8939;-84
2023/06/27 03:35:11;;;;;;;;;4.25;4.00;;;;;;;;5055508;28;8865;-84
2023/06/27 03:37:38;;;;;;;;;3.25;2.75;;;;;;;;5056639;28;8884;-85
2023/06/27 03:40:08;;;;;;;;;3.50;3.50;;;;;;;;5054126;28;8874;-83
2023/06/27 03:42:35;;;;;;;;;3.00;3.00;;;;;;;;5055240;28;8862;-89
2023/06/27 03:45:03;;;;;;;;;3.25;2.50;;;;;;;;5055479;28;9008;-89
2023/06/27 03:47:31;;;;;;;;;2.00;2.00;;;;;;;;5053282;28;8865;-87
2023/06/27 03:49:58;;;;;;;;;5.00;3.25;;;;;;;;5049110;28;8853;-89
2023/06/27 03:52:25;;;;;;;;;4.25;3.00;;;;;;;;5052700;28;8964;-88
2023/06/27 03:54:52;;;;;;;;;4.50;2.75;;;;;;;;5052535;28;8911;-86
2023/06/27 03:57:21;;;;;;;;;4.00;4.00;;;;;;;;5052340;28;8865;-86
2023/06/27 03:59:49;;;;;;;;;4.50;4.50;;;;;;;;5048634;28;8872;-86
2023/06/27 04:02:19;;;;;;;;;3.25;3.00;;;;;;;;5050979;28;8889;-88
2023/06/27 04:04:46;;;;;;;;;4.50;3.25;;;;;;;;5051264;28;8849;-89
2023/06/27 04:07:14;;;;;;;;;4.67;4.67;;;;;;;;5053677;28;8873;-84
2023/06/27 04:09:41;;;;;;;;;4.00;4.00;;;;;;;;5056079;28;9066;-85
2023/06/27 04:12:10;;;;;;;;;3.75;3.75;;;;;;;;5053586;28;8947;-87
2023/06/27 04:14:41;;;;;;;;;4.00;4.00;;;;;;;;5055567;28;8971;-80
2023/06/27 04:17:08;;;;;;;;;4.00;4.00;;;;;;;;5057562;28;8839;-78
2023/06/27 04:19:35;;;;;;;;;3.50;3.50;;;;;;;;5054294;28;8891;-78
2023/06/27 04:22:03;;;;;;;;;3.75;2.00;;;;;;;;5056285;28;8859;-83
2023/06/27 04:24:30;;;;;;;;;5.00;3.50;;;;;;;;5043857;28;8857;-81
2023/06/27 04:26:58;;;;;;;;;6.25;5.00;;;;;;;;5051476;28;8878;-87
2023/06/27 04:29:25;;;;;;;;;7.00;4.00;;;;;;;;5051456;28;8865;-91
2023/06/27 04:31:54;;;;;;;;;3.50;2.00;;;;;;;;5050867;28;8949;-86
2023/06/27 04:34:21;;;;;;;;;3.50;3.25;;;;;;;;5054840;28;8865;-80
2023/06/27 04:36:51;;;;;;;;;3.75;3.75;;;;;;;;5051865;28;8850;-82
2023/06/27 04:39:18;;;;;;;;;3.00;3.00;;;;;;;;5055062;28;8893;-88
2023/06/27 04:41:45;;;;;;;;;3.00;3.00;;;;;;;;5052319;28;8865;-84
2023/06/27 04:44:13;;;;;;;;;3.00;2.75;;;;;;;;5052202;28;8842;-87
2023/06/27 04:46:40;;;;;;;;;4.00;4.00;;;;;;;;5059513;28;8922;-91
2023/06/27 04:49:09;;;;;;;;;6.00;6.00;;;;;;;;5057070;28;8950;-91
2023/06/27 04:51:36;;;;;;;;;3.00;3.00;;;;;;;;5059395;28;8841;-89
2023/06/27 04:54:03;;;;;;;;;2.75;2.75;;;;;;;;5061700;28;8889;-87
2023/06/27 04:56:31;;;;;;;;;4.00;3.50;;;;;;;;5060450;28;8869;-89
2023/06/27 04:58:58;;;;;;;;;5.00;4.75;;;;;;;;5056847;28;8877;-89
2023/06/27 05:01:26;;;;;;;;;3.00;3.00;;;;;;;;5056085;28;8810;-86
2023/06/27 05:03:53;;;;;;;;;3.00;3.00;;;;;;;;5052427;28;8889;-96
2023/06/27 05:06:22;;;;;;;;;4.25;4.25;;;;;;;;5067695;28;8886;-90
2023/06/27 05:08:49;;;;;;;;;3.00;3.00;;;;;;;;5058860;28;8887;-89
2023/06/27 05:11:17;;;;;;;;;5.00;5.00;;;;;;;;5051142;28;8864;-88
2023/06/27 05:13:44;;;;;;;;;4.50;4.50;;;;;;;;5051019;28;8881;-90
2023/06/27 05:16:11;;;;;;;;;3.00;3.00;;;;;;;;5057697;28;8864;-81
2023/06/27 05:18:38;;;;;;;;;5.00;5.00;;;;;;;;5051315;28;8996;-82
2023/06/27 05:21:06;;;;;;;;;5.00;4.00;;;;;;;;5049607;28;9560;-82
2023/06/27 05:23:35;;;;;;;;;5.50;4.75;;;;;;;;5053056;28;8854;-82
2023/06/27 05:26:02;;;;;;;;;6.00;4.00;;;;;;;;5068894;28;9017;-81
2023/06/27 05:28:30;;;;;;;;;3.25;3.25;;;;;;;;5055532;28;8952;-80
2023/06/27 05:30:57;;;;;;;;;6.00;6.00;;;;;;;;5058248;28;8786;-80
2023/06/27 05:33:24;;;;;;;;;4.00;4.00;;;;;;;;5049881;28;9694;-81
2023/06/27 05:35:52;;;;;;;;;4.50;4.00;;;;;;;;5062103;28;8946;-82
2023/06/27 05:38:19;;;;;;;;;4.00;4.00;;;;;;;;5050071;28;8861;-80
2023/06/27 05:40:48;;;;;;;;;3.50;2.75;;;;;;;;5040208;28;8845;-80
2023/06/27 05:43:15;;;;;;;;;5.50;4.00;;;;;;;;5049129;28;8865;-81
2023/06/27 05:45:42;;;;;;;;;5.00;3.75;;;;;;;;5049475;28;8869;-82
2023/06/27 05:48:09;;;;;;;;;5.00;4.50;;;;;;;;5049168;28;8841;-83
2023/06/27 05:50:37;;;;;;;;;5.00;4.00;;;;;;;;5049817;28;9626;-83
2023/06/27 05:53:04;;;;;;;;;3.25;3.25;;;;;;;;5052324;28;8998;-80
2023/06/27 05:55:32;;;;;;;;;5.00;3.75;;;;;;;;5059383;28;8968;-79
2023/06/27 05:58:01;;;;;;;;;3.00;3.00;;;;;;;;5050403;28;8879;-82
2023/06/27 06:00:28;;;;;;;;;5.00;5.00;;;;;;;;5048731;28;8733;-80
2023/06/27 06:02:55;;;;;;;;;5.00;4.00;;;;;;;;5048662;28;8845;-79
2023/06/27 06:05:22;;;;;;;;;6.25;5.00;;;;;;;;5049265;28;8845;-80
2023/06/27 06:07:50;;;;;;;;;5.50;2.25;;;;;;;;5048872;28;8846;-80
2023/06/27 06:10:18;;;;;;;;;4.25;4.00;;;;;;;;5050136;28;8846;-83
2023/06/27 06:12:45;;;;;;;;;4.00;4.00;;;;;;;;5047194;28;8845;-83
2023/06/27 06:15:14;;;;;;;;;3.75;3.25;;;;;;;;5049880;28;8972;-85
2023/06/27 06:17:41;;;;;;;;;4.00;4.00;;;;;;;;5049646;28;8857;-86
2023/06/27 06:20:10;;;;;;;;;3.75;3.50;;;;;;;;5050819;28;8869;-88
2023/06/27 06:22:38;;;;;;;;;6.00;4.00;;;;;;;;5037605;28;9680;-82
2023/06/27 06:25:07;;;;;;;;;3.00;3.00;;;;;;;;5049792;28;8896;-80
2023/06/27 06:27:34;;;;;;;;;5.25;3.50;;;;;;;;5061258;28;8853;-82
2023/06/27 06:30:01;;;;;;;;;8.00;4.75;;;;;;;;5051018;28;9011;-83
2023/06/27 06:32:30;;;;;;;;;5.25;4.50;;;;;;;;5051394;28;8830;-80
2023/06/27 06:34:58;;;;;;;;;3.00;3.00;;;;;;;;5052196;28;8869;-82
2023/06/27 06:37:25;;;;;;;;;4.00;4.00;;;;;;;;5053282;28;8972;-81
2023/06/27 06:39:52;;;;;;;;;4.00;4.00;;;;;;;;5068588;28;8862;-83
2023/06/27 06:42:19;;;;;;;;;4.50;3.50;;;;;;;;5057112;28;8972;-78
2023/06/27 06:44:47;;;;;;;;;2.75;2.75;;;;;;;;5062793;28;8847;-81
2023/06/27 06:47:15;;;;;;;;;5.50;5.50;;;;;;;;5060817;28;8865;-83
2023/06/27 06:49:43;;;;;;;;;5.00;3.75;;;;;;;;5047741;28;8908;-79
2023/06/27 06:52:11;;;;;;;;;5.00;5.00;;;;;;;;5048339;28;8976;-80
2023/06/27 06:54:38;;;;;;;;;4.00;4.00;;;;;;;;5060163;28;8990;-84
2023/06/27 06:57:06;;;;;;;;;5.00;5.00;;;;;;;;5048076;28;8885;-82
2023/06/27 06:59:34;;;;;;;;;7.00;5.00;;;;;;;;5049430;28;8983;-84
2023/06/27 07:02:01;;;;;;;;;7.00;5.00;;;;;;;;5048441;28;8917;-82
2023/06/27 07:04:28;;;;;;;;;6.00;4.25;;;;;;;;5047743;28;8870;-79
2023/06/27 07:06:57;;;;;;;;;4.75;2.25;;;;;;;;5048323;28;8880;-83
2023/06/27 07:09:24;;;;;;;;;4.75;4.75;;;;;;;;5049766;28;8900;-83
2023/06/27 07:11:51;;;;;;;;;4.00;4.00;;;;;;;;5050487;28;8853;-86
2023/06/27 07:14:18;;;;;;;;;4.75;4.25;;;;;;;;5052314;28;9008;-84
2023/06/27 07:16:46;;;;;;;;;8.75;5.50;;;;;;;;5048032;28;8869;-85
2023/06/27 07:19:13;;;;;;;;;4.75;4.75;;;;;;;;5055030;28;8858;-86
2023/06/27 07:21:40;;;;;;;;;7.00;4.00;;;;;;;;5054800;28;8956;-85
2023/06/27 07:24:09;;;;;;;;;5.00;5.00;;;;;;;;5047078;28;8980;-86
2023/06/27 07:26:36;;;;;;;;;5.75;4.00;;;;;;;;5061006;28;8885;-82
2023/06/27 07:29:03;;;;;;;;;6.00;3.75;;;;;;;;5035865;28;8853;-82
2023/06/27 07:31:33;;;;;;;;;4.50;3.25;;;;;;;;5047756;28;8798;-86
2023/06/27 07:34:00;;;;;;;;;3.75;3.75;;;;;;;;5048822;28;8946;-82
2023/06/27 07:36:27;;;;;;;;;3.00;3.00;;;;;;;;5047526;28;8876;-84
2023/06/27 07:38:58;;;;;;;;;5.50;5.50;;;;;;;;5047997;28;8865;-87
2023/06/27 07:41:28;;;;;;;;;4.75;4.75;;;;;;;;5048482;28;8877;-82
2023/06/27 07:43:56;;;;;;;;;6.00;4.50;;;;;;;;5048489;28;8872;-86
2023/06/27 07:46:23;;;;;;;;;4.75;3.75;;;;;;;;5048208;28;8844;-81
2023/06/27 07:48:50;;;;;;;;;7.25;5.00;;;;;;;;5057299;28;8882;-82
2023/06/27 07:51:17;;;;;;;;;3.75;3.00;;;;;;;;5051076;28;9011;-82
2023/06/27 07:53:45;;;;;;;;;3.75;3.75;;;;;;;;5048388;28;8853;-82
2023/06/27 07:56:13;;;;;;;;;3.00;3.00;;;;;;;;5048002;28;8907;-81
2023/06/27 07:58:42;;;;;;;;;6.25;3.00;;;;;;;;5052535;28;8995;-79
2023/06/27 08:01:11;;;;;;;;;5.00;3.50;;;;;;;;5047953;28;8785;-80
2023/06/27 08:03:38;;;;;;;;;3.25;3.25;;;;;;;;5049341;28;8862;-80
2023/06/27 08:06:08;;;;;;;;;3.00;3.00;;;;;;;;5052903;28;8885;-80
2023/06/27 08:08:36;;;;;;;;;2.75;2.00;;;;;;;;5053757;28;8880;-81
2023/06/27 08:11:03;;;;;;;;;2.60;2.60;;;;;;;;5054577;28;8873;-80
2023/06/27 08:13:31;;;;;;;;;3.60;2.40;;;;;;;;5054814;28;8846;-80
2023/06/27 08:15:59;;;;;;;;;2.60;2.60;;;;;;;;5064785;28;8931;-80
2023/06/27 08:18:26;;;;;;;;;2.40;2.40;;;;;;;;5059058;28;8862;-80
2023/06/27 08:20:54;;;;;;;;;2.60;2.60;;;;;;;;5064807;28;8850;-80
2023/06/27 08:23:21;;;;;;;;;3.60;3.60;;;;;;;;5070378;28;8851;-81
2023/06/27 08:25:48;;;;;;;;;3.20;2.40;;;;;;;;5068808;28;9017;-80
2023/06/27 08:28:15;;;;;;;;;3.80;2.80;;;;;;;;5056567;28;8861;-80
2023/06/27 08:30:42;;;;;;;;;5.00;3.60;;;;;;;;5067167;28;8803;-82
2023/06/27 08:33:11;;;;;;;;;2.00;2.00;;;;;;;;5068875;28;8866;-80
2023/06/27 08:35:38;;;;;;;;;2.60;2.60;;;;;;;;5044736;28;8977;-79
2023/06/27 08:38:06;;;;;;;;;4.60;3.00;;;;;;;;5067441;28;8851;-80
2023/06/27 08:40:35;;;;;;;;;3.60;3.00;;;;;;;;5069957;28;8838;-80
2023/06/27 08:43:03;;;;;;;;;2.40;2.20;;;;;;;;5066487;28;8936;-82
2023/06/27 08:45:30;;;;;;;;;2.60;2.60;;;;;;;;5057573;28;8843;-92
2023/06/27 08:48:00;;;;;;;;;2.00;1.60;;;;;;;;5067635;28;8873;-79
2023/06/27 08:50:30;;;;;;;;;3.00;3.00;;;;;;;;5070668;28;8928;-77
2023/06/27 08:52:58;;;;;;;;;4.80;2.40;;;;;;;;5067079;28;8885;-83
2023/06/27 08:55:33;;;;;;;;;2.40;2.40;;;;;;;;5067919;28;9648;-81
2023/06/27 08:58:04;;;;;;;;;3.00;3.00;;;;;;;;5055488;28;8882;-83
2023/06/27 09:00:32;;;;;;;;;2.20;2.20;;;;;;;;5071236;28;8775;-84
2023/06/27 09:02:59;;;;;;;;;2.00;2.00;;;;;;;;5066616;28;8869;-81
2023/06/27 09:05:29;;;;;;;;;2.00;2.00;;;;;;;;5063198;28;9484;-83
2023/06/27 09:07:57;;;;;;;;;1.20;1.20;;;;;;;;5065514;28;8850;-82
2023/06/27 09:10:24;;;;;;;;;2.20;2.00;;;;;;;;5067476;28;8843;-82
2023/06/27 09:12:53;;;;;;;;;2.00;2.00;;;;;;;;5062799;28;8849;-83
2023/06/27 09:15:20;;;;;;;;;1.80;1.80;;;;;;;;5050081;28;8869;-86
2023/06/27 09:17:47;;;;;;;;;2.20;2.20;;;;;;;;5049651;28;8865;-85
2023/06/27 09:20:17;;;;;;;;;4.60;2.40;;;;;;;;5061457;28;8863;-82
2023/06/27 09:22:46;;;;;;;;;2.80;2.80;;;;;;;;5049608;28;8861;-81
2023/06/27 09:25:15;;;;;;;;;2.80;2.80;;;;;;;;5050332;28;8847;-83
2023/06/27 09:27:43;;;;;;;;;3.00;2.00;;;;;;;;5058955;28;8847;-83
2023/06/27 09:30:11;;;;;;;;;4.20;2.80;;;;;;;;5053164;28;8885;-80
2023/06/27 09:32:53;;;;;;;;;4.80;2.80;;;;;;;;5050998;28;8853;-86
2023/06/27 09:35:21;;;;;;;;;0.80;0.80;;;;;;;;5051825;28;9655;-82
2023/06/27 09:37:50;;;;;;;;;4.00;2.80;;;;;;;;5051276;28;8857;-87
2023/06/27 09:40:19;;;;;;;;;0.00;0.00;;;;;;;;5051847;28;8880;-83
2023/06/27 09:42:53;;;;;;;;;1.60;1.60;;;;;;;;5053562;28;8849;-86
2023/06/27 09:45:21;;;;;;;;;5.60;4.80;;;;;;;;5042987;28;9009;-85
2023/06/27 09:47:49;;;;;;;;;3.00;3.00;;;;;;;;5065498;28;8847;-84
2023/06/27 09:50:17;;;;;;;;;69.25;54.25;;;;;;;;5053449;28;8880;-85
2023/06/27 09:52:52;;;;;;;;;2.60;2.60;;;;;;;;5060625;28;8839;-85
2023/06/27 09:55:20;;;;;;;;;4.00;3.00;;;;;;;;5055660;28;8937;-81
2023/06/27 09:57:48;;;;;;;;;3.00;1.00;;;;;;;;5066684;28;8993;-82
2023/06/27 10:00:20;;;;;;;;;3.00;1.20;;;;;;;;5049264;28;8951;-80
2023/06/27 10:02:48;;;;;;;;;2.20;2.00;;;;;;;;5052769;28;8857;-84
2023/06/27 10:05:18;;;;;;;;;0.20;0.20;;;;;;;;5052277;28;9011;-88
2023/06/27 10:07:45;;;;;;;;;2143.33;1691.00;;;;;;;;5054106;28;8866;-85
2023/06/27 10:10:17;;;;;;;;;1636.67;1435.83;;;;;;;;5052085;28;8958;-81
2023/06/27 10:12:45;;;;;;;;;41.25;35.75;;;;;;;;5050962;28;8861;-82
2023/06/27 10:15:13;;;;;;;;;120.20;114.00;;;;;;;;5062916;28;8928;-86
2023/06/27 10:17:40;;;;;;;;;4.20;2.60;;;;;;;;5070542;28;8886;-85
2023/06/27 10:20:11;;;;;;;;;5.00;0.80;;;;;;;;5056411;28;8889;-81
2023/06/27 10:22:40;;;;;;;;;1.60;0.80;;;;;;;;5050465;28;9632;-83
2023/06/27 10:25:09;;;;;;;;;522.67;430.33;;;;;;;;5048958;28;8881;-82
2023/06/27 10:27:42;;;;;;;;;61.25;51.50;;;;;;;;5054389;28;8933;-81
2023/06/27 10:30:23;;;;;;;;;38.00;34.00;;;;;;;;5055804;28;11634;-87
2023/06/27 10:32:50;;;;;;;;;8.20;6.00;;;;;;;;5047710;28;8872;-80
2023/06/27 10:35:25;;;;;;;;;3.80;2.40;;;;;;;;5062785;28;8858;-87
2023/06/27 10:38:07;;;;;;;;;2.60;1.00;;;;;;;;5067144;28;8875;-79
2023/06/27 10:41:09;;;;;;;;;1.80;1.80;;;;;;;;5056420;28;8865;-79
2023/06/27 10:43:39;;;;;;;;;1.20;1.20;;;;;;;;5049149;28;8838;-81
2023/06/27 10:46:07;;;;;;;;;2.20;1.20;;;;;;;;5052547;28;8881;-83
2023/06/27 10:48:35;;;;;;;;;0.00;0.00;;;;;;;;5067574;28;8843;-84
2023/06/27 10:51:07;;;;;;;;;1.00;1.00;;;;;;;;5066467;28;8863;-86
2023/06/27 10:53:34;;;;;;;;;0.00;0.00;;;;;;;;5068298;28;8847;-83
2023/06/27 10:56:15;;;;;;;;;1.00;1.00;;;;;;;;5052407;28;8865;-80
2023/06/27 10:58:45;;;;;;;;;1.20;1.20;;;;;;;;5055145;28;8860;-79
2023/06/27 11:01:13;;;;;;;;;0.20;0.20;;;;;;;;5061829;28;8796;-81
2023/06/27 11:03:43;;;;;;;;;0.00;0.00;;;;;;;;5047640;28;8846;-79
2023/06/27 11:06:10;;;;;;;;;0.60;0.60;;;;;;;;5054352;28;8860;-80
2023/06/27 11:08:40;;;;;;;;;1.00;1.00;;;;;;;;5049586;28;8865;-79
2023/06/27 11:11:08;;;;;;;;;0.40;0.20;;;;;;;;5049310;28;8845;-80
2023/06/27 11:13:36;;;;;;;;;1.00;1.00;;;;;;;;5049177;28;8835;-80
2023/06/27 11:16:05;;;;;;;;;1.00;0.00;;;;;;;;5049583;28;8968;-78
2023/06/27 11:18:35;;;;;;;;;0.00;0.00;;;;;;;;5052675;28;8972;-81
2023/06/27 11:21:02;;;;;;;;;0.00;0.00;;;;;;;;5049354;28;8892;-82
2023/06/27 11:23:31;;;;;;;;;0.20;0.20;;;;;;;;5066703;28;8831;-89
2023/06/27 11:25:59;;;;;;;;;0.00;0.00;;;;;;;;5071245;28;8850;-82
2023/06/27 11:28:26;;;;;;;;;1.80;1.80;;;;;;;;5050709;28;8857;-80
2023/06/27 11:31:00;;;;;;;;;0.40;0.40;;;;;;;;5048412;28;8793;-83
2023/06/27 11:33:29;;;;;;;;;2.00;1.00;;;;;;;;5057415;28;8874;-93
2023/06/27 11:35:59;;;;;;;;;3.20;1.80;;;;;;;;5051430;28;8861;-87
2023/06/27 11:38:27;;;;;;;;;0.20;0.20;;;;;;;;5053630;28;8887;-81
2023/06/27 11:40:55;;;;;;;;;1.40;0.00;;;;;;;;5052620;28;9239;-86
2023/06/27 11:43:22;;;;;;;;;0.00;0.00;;;;;;;;5058384;28;8878;-80
2023/06/27 11:45:51;;;;;;;;;1.60;0.00;;;;;;;;5057250;28;9021;-80
2023/06/27 11:48:19;;;;;;;;;0.80;0.60;;;;;;;;5058416;28;8992;-81
2023/06/27 11:50:58;;;;;;;;;0.00;0.00;;;;;;;;5061901;28;8861;-87
2023/06/27 11:53:27;;;;;;;;;1.20;0.40;;;;;;;;5054316;28;8962;-80
2023/06/27 11:55:54;;;;;;;;;0.60;0.60;;;;;;;;5061778;28;8860;-80
2023/06/27 11:58:30;;;;;;;;;0.00;0.00;;;;;;;;5053367;28;8878;-82
2023/06/27 12:00:58;;;;;;;;;2.40;0.80;;;;;;;;5051576;28;8835;-81
2023/06/27 12:03:29;;;;;;;;;0.60;0.60;;;;;;;;5063129;28;8834;-80
2023/06/27 12:05:58;;;;;;;;;0.00;0.00;;;;;;;;5057716;28;8881;-80
2023/06/27 12:08:34;;;;;;;;;0.00;0.00;;;;;;;;5064705;28;8839;-83
2023/06/27 12:11:03;;;;;;;;;0.00;0.00;;;;;;;;5062443;28;8842;-80
2023/06/27 12:13:37;;;;;;;;;0.00;0.00;;;;;;;;5055456;28;8864;-86
2023/06/27 12:16:05;;;;;;;;;0.40;0.00;;;;;;;;5058367;28;8880;-86
2023/06/27 12:18:35;;;;;;;;;2.00;0.00;;;;;;;;5053426;28;8881;-84
2023/06/27 12:21:04;;;;;;;;;0.20;0.20;;;;;;;;5051313;28;8921;-86
2023/06/27 12:23:32;;;;;;;;;0.20;0.20;;;;;;;;5052428;28;8849;-85
2023/06/27 12:25:59;;;;;;;;;0.00;0.00;;;;;;;;5052119;28;8853;-88
2023/06/27 12:28:27;;;;;;;;;1.00;1.00;;;;;;;;5052451;28;9114;-85
2023/06/27 12:30:54;;;;;;;;;0.00;0.00;;;;;;;;5048202;28;8820;-86
2023/06/27 12:33:22;;;;;;;;;0.00;0.00;;;;;;;;5073862;28;8990;-85
2023/06/27 12:35:50;;;;;;;;;1.00;0.40;;;;;;;;5052184;28;8881;-85
2023/06/27 12:38:18;;;;;;;;;0.00;0.00;;;;;;;;5051523;28;8932;-86
2023/06/27 12:40:46;;;;;;;;;1.00;1.00;;;;;;;;5062072;28;8846;-86
2023/06/27 12:43:16;;;;;;;;;2.40;1.00;;;;;;;;5054579;28;8962;-85
2023/06/27 12:45:43;;;;;;;;;0.60;0.60;;;;;;;;5051689;28;8865;-83
2023/06/27 12:48:11;;;;;;;;;2.00;0.20;;;;;;;;5051530;28;8861;-84
2023/06/27 12:50:38;;;;;;;;;0.60;0.00;;;;;;;;5062653;28;8874;-84
2023/06/27 12:53:05;;;;;;;;;0.00;0.00;;;;;;;;5053606;28;8880;-82
2023/06/27 12:55:34;;;;;;;;;0.00;0.00;;;;;;;;5053320;28;8884;-83
2023/06/27 12:58:04;;;;;;;;;0.00;0.00;;;;;;;;5060743;28;8861;-83
2023/06/27 13:00:37;;;;;;;;;1.60;0.00;;;;;;;;5075116;28;8751;-83
2023/06/27 13:03:06;;;;;;;;;0.80;0.00;;;;;;;;5070923;28;8838;-85
2023/06/27 13:05:33;;;;;;;;;1.60;0.00;;;;;;;;5065248;28;8920;-86
2023/06/27 13:08:01;;;;;;;;;0.00;0.00;;;;;;;;5058280;28;8862;-86
2023/06/27 13:10:28;;;;;;;;;0.00;0.00;;;;;;;;5054825;28;8919;-86
2023/06/27 13:12:57;;;;;;;;;0.80;0.80;;;;;;;;5052435;28;9601;-89
2023/06/27 13:15:25;;;;;;;;;1.20;1.20;;;;;;;;5049493;28;8884;-88
2023/06/27 13:17:52;;;;;;;;;1.00;1.00;;;;;;;;5050932;28;8858;-86
2023/06/27 13:20:20;;;;;;;;;1.00;1.00;;;;;;;;5051346;28;8950;-84
2023/06/27 13:22:49;;;;;;;;;0.20;0.00;;;;;;;;5050920;28;8923;-84
2023/06/27 13:25:16;;;;;;;;;2.40;1.00;;;;;;;;5051576;28;8831;-84
2023/06/27 13:27:47;;;;;;;;;0.00;0.00;;;;;;;;5033442;28;8881;-86
2023/06/27 13:30:16;;;;;;;;;0.80;0.00;;;;;;;;5041497;28;8917;-85
2023/06/27 13:32:46;;;;;;;;;1.80;1.00;;;;;;;;5070889;28;9012;-86
2023/06/27 13:35:16;;;;;;;;;0.00;0.00;;;;;;;;5060077;28;8881;-85
2023/06/27 13:37:46;;;;;;;;;0.80;0.80;;;;;;;;5060268;28;8885;-86
2023/06/27 13:40:17;;;;;;;;;0.40;0.40;;;;;;;;5051412;28;8889;-85
2023/06/27 13:42:44;;;;;;;;;0.00;0.00;;;;;;;;5050188;28;9581;-85
2023/06/27 13:45:12;;;;;;;;;0.00;0.00;;;;;;;;5037595;28;9717;-86
2023/06/27 13:47:41;;;;;;;;;1.00;1.00;;;;;;;;5050284;28;8979;-89
2023/06/27 13:50:09;;;;;;;;;2.20;0.20;;;;;;;;5050985;28;8842;-94
2023/06/27 13:52:36;;;;;;;;;3.60;1.00;;;;;;;;5052112;28;8865;-84
2023/06/27 13:55:05;;;;;;;;;2.00;0.00;;;;;;;;5052290;28;8881;-86
2023/06/27 13:57:35;;;;;;;;;0.00;0.00;;;;;;;;5053078;28;8915;-85
2023/06/27 14:00:07;;;;;;;;;0.00;0.00;;;;;;;;5051926;28;8923;-91
2023/06/27 14:02:48;;;;;;;;;0.00;0.00;;;;;;;;5049720;28;8944;-86
2023/06/27 14:05:15;;;;;;;;;1.00;1.00;;;;;;;;5043054;28;8985;-85
2023/06/27 14:07:43;;;;;;;;;1.00;1.00;;;;;;;;5066982;28;8936;-85
2023/06/27 14:10:12;;;;;;;;;1.40;0.00;;;;;;;;5058986;28;8857;-82
2023/06/27 14:12:39;;;;;;;;;1.80;0.00;;;;;;;;5055190;28;9608;-82
2023/06/27 14:15:08;;;;;;;;;0.80;0.00;;;;;;;;5051918;28;9604;-86
2023/06/27 14:17:51;;;;;;;;;0.00;0.00;;;;;;;;5060115;28;8890;-83
2023/06/27 14:20:20;;;;;;;;;2.00;0.60;;;;;;;;5055574;28;8918;-83
2023/06/27 14:22:48;;;;;;;;;2.00;1.20;;;;;;;;5061151;28;8855;-83
2023/06/27 14:25:16;;;;;;;;;0.00;0.00;;;;;;;;5056923;28;8888;-83
2023/06/27 14:27:49;;;;;;;;;0.00;0.00;;;;;;;;5062986;28;8874;-84
2023/06/27 14:30:19;;;;;;;;;1.00;0.00;;;;;;;;5058003;28;8853;-82
2023/06/27 14:32:47;;;;;;;;;0.00;0.00;;;;;;;;5056161;28;8977;-84
2023/06/27 14:35:18;;;;;;;;;0.40;0.40;;;;;;;;5059011;28;9001;-83
2023/06/27 14:37:46;;;;;;;;;2.20;0.00;;;;;;;;5052837;28;8842;-83
2023/06/27 14:40:16;;;;;;;;;1.00;0.20;;;;;;;;5051922;28;8877;-83
2023/06/27 14:42:49;;;;;;;;;1.20;1.20;;;;;;;;5048738;28;8874;-83
2023/06/27 14:45:18;;;;;;;;;0.00;0.00;;;;;;;;5056667;28;8999;-83
2023/06/27 14:47:45;;;;;;;;;1.00;1.00;;;;;;;;5048083;28;8931;-82
2023/06/27 14:50:13;;;;;;;;;0.80;0.80;;;;;;;;5052292;28;8981;-83
2023/06/27 14:52:40;;;;;;;;;0.60;0.00;;;;;;;;5071096;28;8855;-82
2023/06/27 14:55:44;;;;;;;;;1.80;0.00;;;;;;;;5056240;28;8976;-87
2023/06/27 14:58:21;;;;;;;;;0.00;0.00;;;;;;;;5047165;28;8857;-82
2023/06/27 15:00:50;;;;;;;;;0.00;0.00;;;;;;;;5048637;28;9581;-83
2023/06/27 15:03:20;;;;;;;;;2.60;0.20;;;;;;;;5048536;28;8911;-83
2023/06/27 15:05:48;;;;;;;;;0.00;0.00;;;;;;;;5048371;28;8984;-84